Time;durP1;ratioP1;P1;durP2;ratioP2;P2;SDS_P1;SDS_P2;PMS_P1;PMS_P2;Temp;Humidity;BMP_temperature;BMP_pressure;BME280_temperature;BME280_humidity;BME280_pressure;Samples;Min_cycle;Max_cycle;Signal;HPM_P1;HPM_P2
2022/06/15 00:02:20;;;;;;;5.50;4.73;;;;;;;18.20;57.41;156040.69;5050042;28;20906;-79
2022/06/15 00:04:48;;;;;;;5.57;5.07;;;;;;;18.11;57.43;156017.25;5053721;28;20509;-79
2022/06/15 00:07:15;;;;;;;7.17;5.57;;;;;;;17.95;58.29;155975.56;5053738;28;20554;-79
2022/06/15 00:09:41;;;;;;;5.73;4.80;;;;;;;18.06;57.56;156004.22;5055091;28;20534;-79
2022/06/15 00:12:09;;;;;;;6.33;5.20;;;;;;;18.10;57.49;156014.66;5054262;28;20449;-79
2022/06/15 00:14:35;;;;;;;5.53;4.63;;;;;;;18.16;56.88;156029.00;5052780;28;20451;-78
2022/06/15 00:17:02;;;;;;;5.57;5.07;;;;;;;18.14;57.15;156023.75;5051313;28;20441;-79
2022/06/15 00:19:29;;;;;;;5.00;4.50;;;;;;;18.17;57.00;156032.88;5049984;28;20457;-79
2022/06/15 00:21:57;;;;;;;5.70;5.17;;;;;;;18.22;57.27;156045.91;5054709;28;20478;-79
2022/06/15 00:24:24;;;;;;;6.90;5.20;;;;;;;18.14;57.09;156023.75;5054342;28;20437;-78
2022/06/15 00:26:51;;;;;;;5.10;4.60;;;;;;;18.08;57.30;156009.41;5054589;28;20541;-79
2022/06/15 00:29:18;;;;;;;5.90;4.93;;;;;;;18.20;57.08;156040.69;5054920;28;20517;-78
2022/06/15 00:31:46;;;;;;;5.87;5.07;;;;;;;18.31;56.72;156066.75;5035711;28;20452;-79
2022/06/15 00:34:13;;;;;;;5.50;5.00;;;;;;;18.30;56.78;156065.44;5055777;28;20529;-79
2022/06/15 00:36:40;;;;;;;5.40;4.90;;;;;;;18.17;57.24;156031.56;5046722;28;20454;-78
2022/06/15 00:39:08;;;;;;;5.10;4.40;;;;;;;18.14;57.42;156025.06;5053130;28;20435;-78
2022/06/15 00:41:37;;;;;;;5.03;4.57;;;;;;;18.03;57.55;155995.16;5053068;28;20478;-78
2022/06/15 00:44:32;;;;;;;5.17;4.67;;;;;;;17.89;58.27;155959.97;5053070;28;20500;-79
2022/06/15 00:47:01;;;;;;;5.13;4.70;;;;;;;17.79;58.54;155933.91;5052591;28;20933;-79
2022/06/15 00:49:30;;;;;;;8.10;4.70;;;;;;;17.78;59.27;155931.31;5069870;28;20566;-78
2022/06/15 00:52:01;;;;;;;5.33;4.83;;;;;;;17.90;58.27;155961.25;5043213;28;20452;-79
2022/06/15 00:54:29;;;;;;;5.73;5.13;;;;;;;18.01;58.17;155989.88;5051208;28;20463;-78
2022/06/15 00:56:56;;;;;;;6.20;5.10;;;;;;;17.98;58.14;155983.38;5052819;28;20447;-78
2022/06/15 00:59:30;;;;;;;5.10;4.57;;;;;;;17.86;58.79;155952.16;5053947;28;20435;-78
2022/06/15 01:01:58;;;;;;;6.10;5.50;;;;;;;17.73;58.92;155918.31;5069582;28;20488;-78
2022/06/15 01:04:27;;;;;;;5.03;4.63;;;;;;;17.69;58.82;155907.88;5044594;28;20534;-78
2022/06/15 01:07:05;;;;;;;5.13;4.63;;;;;;;17.89;58.06;155958.66;5053906;28;20474;-78
2022/06/15 01:09:37;;;;;;;7.20;5.03;;;;;;;17.88;57.72;155957.34;5038202;28;20444;-79
2022/06/15 01:12:11;;;;;;;4.87;4.47;;;;;;;18.02;57.33;155993.81;5049181;28;20550;-78
2022/06/15 01:14:48;;;;;;;5.70;4.60;;;;;;;17.96;57.92;155978.19;5049112;28;20430;-79
2022/06/15 01:17:25;;;;;;;6.00;4.50;;;;;;;17.88;58.14;155956.03;5051613;28;20478;-79
2022/06/15 01:20:26;;;;;;;5.47;4.97;;;;;;;17.79;58.87;155932.63;5052975;28;20429;-79
2022/06/15 01:23:13;;;;;;;5.50;5.00;;;;;;;17.81;58.96;155937.84;5018054;28;20541;-78
2022/06/15 01:25:44;;;;;;;6.13;5.50;;;;;;;17.78;59.16;155931.31;5057921;28;20443;-78
2022/06/15 01:28:30;;;;;;;6.27;5.30;;;;;;;17.72;59.42;155915.69;5037389;28;20804;-78
2022/06/15 01:31:01;;;;;;;5.87;5.23;;;;;;;17.62;59.72;155889.66;5055497;28;20869;-78
2022/06/15 01:33:32;;;;;;;5.80;4.57;;;;;;;17.55;59.93;155871.47;5052138;28;20534;-78
2022/06/15 01:36:05;;;;;;;6.27;4.80;;;;;;;17.47;59.65;155850.56;5065890;28;21039;-78
2022/06/15 01:38:37;;;;;;;5.03;4.53;;;;;;;17.55;59.77;155871.47;5052560;28;20469;-78
2022/06/15 01:41:10;;;;;;;4.83;4.30;;;;;;;17.57;59.32;155876.66;5050902;28;20471;-78
2022/06/15 01:43:41;;;;;;;5.40;4.90;;;;;;;17.57;59.46;155876.66;5048931;28;20481;-79
2022/06/15 01:46:10;;;;;;;5.43;4.73;;;;;;;17.53;59.60;155866.22;5032627;28;20808;-79
2022/06/15 01:48:38;;;;;;;6.50;5.90;;;;;;;17.58;59.15;155879.22;5048394;28;20502;-78
2022/06/15 01:51:08;;;;;;;7.17;6.00;;;;;;;17.48;59.67;155853.16;5048987;28;20486;-78
2022/06/15 01:53:38;;;;;;;6.63;5.87;;;;;;;17.41;59.98;155836.25;5068010;28;20492;-78
2022/06/15 01:56:09;;;;;;;5.50;5.00;;;;;;;17.28;60.37;155802.41;5050973;28;20505;-78
2022/06/15 01:58:38;;;;;;;5.53;5.00;;;;;;;17.30;60.04;155806.28;5052368;28;20428;-78
2022/06/15 02:01:11;;;;;;;5.03;4.53;;;;;;;17.28;61.29;155801.09;5049622;28;20973;-78
2022/06/15 02:03:43;;;;;;;6.83;5.00;;;;;;;17.23;60.59;155789.41;5051251;28;20447;-78
2022/06/15 02:06:18;;;;;;;5.70;4.80;;;;;;;17.21;60.24;155782.91;5051492;28;20446;-78
2022/06/15 02:08:50;;;;;;;5.30;4.90;;;;;;;17.17;60.70;155772.47;5052638;28;20423;-78
2022/06/15 02:11:28;;;;;;;6.60;5.00;;;;;;;17.16;60.76;155769.84;5033959;28;20454;-78
2022/06/15 02:13:59;;;;;;;4.83;4.30;;;;;;;17.12;60.61;155759.47;5031139;28;20471;-78
2022/06/15 02:16:31;;;;;;;5.67;4.70;;;;;;;17.11;61.18;155756.84;5038981;28;20948;-79
2022/06/15 02:19:01;;;;;;;7.90;4.50;;;;;;;17.16;60.67;155769.84;5047932;28;20847;-78
2022/06/15 02:21:30;;;;;;;5.30;4.80;;;;;;;17.08;60.79;155749.06;5052462;28;20474;-79
2022/06/15 02:23:59;;;;;;;5.60;5.00;;;;;;;17.14;60.55;155765.97;5034408;28;20804;-78
2022/06/15 02:26:30;;;;;;;5.50;4.50;;;;;;;17.09;60.86;155751.63;5051409;28;20454;-78
2022/06/15 02:29:00;;;;;;;4.33;3.93;;;;;;;17.05;61.11;155743.81;5051981;28;20443;-78
2022/06/15 02:31:37;;;;;;;5.30;4.30;;;;;;;16.99;61.55;155726.94;5050822;28;20596;-80
2022/06/15 02:34:04;;;;;;;5.30;4.27;;;;;;;16.95;62.41;155717.81;5028335;28;20453;-79
2022/06/15 02:36:32;;;;;;;6.53;4.97;;;;;;;16.96;62.03;155719.13;5050856;28;20500;-79
2022/06/15 02:39:00;;;;;;;5.77;4.73;;;;;;;17.04;62.03;155741.25;5034111;28;20442;-78
2022/06/15 02:41:31;;;;;;;6.47;4.60;;;;;;;17.04;61.44;155741.25;5050980;28;20898;-79
2022/06/15 02:44:02;;;;;;;5.47;4.97;;;;;;;17.02;61.65;155734.75;5023627;28;20543;-78
2022/06/15 02:46:33;;;;;;;6.60;4.80;;;;;;;17.04;61.23;155741.25;5036249;28;20820;-78
2022/06/15 02:49:02;;;;;;;8.97;4.93;;;;;;;17.12;61.07;155759.47;5046195;28;20992;-79
2022/06/15 02:51:33;;;;;;;6.03;4.37;;;;;;;17.09;60.26;155752.94;5033176;28;20447;-79
2022/06/15 02:54:07;;;;;;;7.97;5.13;;;;;;;17.11;60.54;155756.84;5033692;28;20445;-78
2022/06/15 02:56:37;;;;;;;4.97;4.40;;;;;;;17.21;60.40;155784.16;5033955;28;20453;-78
2022/06/15 02:59:06;;;;;;;4.97;4.57;;;;;;;17.21;60.44;155784.16;5067863;28;20457;-78
2022/06/15 03:01:37;;;;;;;7.13;5.13;;;;;;;17.22;60.52;155786.78;5033785;28;20473;-78
2022/06/15 03:04:05;;;;;;;5.43;4.63;;;;;;;17.09;61.78;155751.63;5048791;28;20458;-78
2022/06/15 03:06:32;;;;;;;7.17;5.30;;;;;;;16.98;61.26;155725.63;5066538;28;21032;-78
2022/06/15 03:09:08;;;;;;;5.13;4.63;;;;;;;16.95;61.82;155717.81;5031767;28;20473;-78
2022/06/15 03:11:42;;;;;;;5.63;4.97;;;;;;;16.98;61.30;155724.31;5053211;28;20438;-78
2022/06/15 03:14:35;;;;;;;6.00;5.40;;;;;;;16.96;61.76;155720.44;5049752;28;20447;-78
2022/06/15 03:17:04;;;;;;;6.80;4.70;;;;;;;16.89;62.05;155702.19;5050322;28;20455;-78
2022/06/15 03:19:44;;;;;;;6.13;5.53;;;;;;;16.94;61.71;155715.19;5031586;28;20453;-78
2022/06/15 03:22:11;;;;;;;8.00;5.20;;;;;;;17.00;61.40;155730.81;5040796;28;20604;-78
2022/06/15 03:24:41;;;;;;;7.70;4.90;;;;;;;16.95;61.55;155717.81;5046096;28;20931;-80
2022/06/15 03:27:10;;;;;;;5.97;5.00;;;;;;;16.85;61.93;155690.50;5054640;28;20486;-80
2022/06/15 03:29:37;;;;;;;5.93;5.30;;;;;;;16.89;61.83;155702.19;5032468;28;20436;-79
2022/06/15 03:32:12;;;;;;;5.80;5.30;;;;;;;16.88;62.55;155699.63;5057359;28;20443;-78
2022/06/15 03:34:48;;;;;;;5.70;5.20;;;;;;;16.82;62.54;155682.69;5049920;28;20964;-78
2022/06/15 03:37:15;;;;;;;5.27;4.77;;;;;;;16.80;62.61;155677.47;5027393;28;20448;-79
2022/06/15 03:39:43;;;;;;;5.03;4.50;;;;;;;16.84;62.24;155687.88;5046641;28;20780;-79
2022/06/15 03:42:18;;;;;;;5.23;4.60;;;;;;;16.83;62.08;155685.31;5058244;28;20518;-79
2022/06/15 03:44:46;;;;;;;5.20;4.70;;;;;;;16.85;61.77;155690.50;5047128;28;20452;-80
2022/06/15 03:47:16;;;;;;;6.23;5.47;;;;;;;16.76;62.74;155667.09;5033523;28;20921;-79
2022/06/15 03:49:43;;;;;;;5.63;4.87;;;;;;;16.78;62.86;155673.59;5049689;28;20474;-78
2022/06/15 03:52:12;;;;;;;6.07;5.10;;;;;;;16.70;63.09;155652.78;5051025;28;20518;-78
2022/06/15 03:54:39;;;;;;;9.17;5.50;;;;;;;16.63;63.31;155634.53;5040194;28;20443;-79
2022/06/15 03:57:08;;;;;;;6.20;4.90;;;;;;;16.59;63.74;155624.16;5046418;28;20447;-78
2022/06/15 03:59:36;;;;;;;5.67;5.07;;;;;;;16.55;64.34;155613.72;5054813;28;20510;-79
2022/06/15 04:02:23;;;;;;;4.73;4.33;;;;;;;16.63;63.82;155633.22;5061142;28;20503;-79
2022/06/15 04:04:50;;;;;;;5.40;4.90;;;;;;;16.67;64.28;155644.97;5049704;28;20571;-79
2022/06/15 04:10:03;;;;;;;5.90;5.30;;;;;;;16.96;63.93;155719.13;5033025;28;20430;-79
2022/06/15 04:12:30;;;;;;;9.10;6.27;;;;;;;17.20;63.15;155780.28;5034427;28;20563;-79
2022/06/15 04:14:58;;;;;;;9.90;5.40;;;;;;;17.30;64.68;155806.28;5048596;28;20530;-79
2022/06/15 04:17:34;;;;;;;6.30;5.73;;;;;;;17.48;63.57;155853.16;5030683;28;20821;-79
2022/06/15 04:20:34;;;;;;;6.20;5.37;;;;;;;17.68;64.21;155905.28;5052896;28;20541;-80
2022/06/15 04:23:20;;;;;;;7.67;5.20;;;;;;;17.89;62.69;155959.97;5033215;28;20475;-80
2022/06/15 04:25:51;;;;;;;6.30;5.60;;;;;;;18.21;61.66;156042.00;5049218;28;20864;-80
2022/06/15 04:28:20;;;;;;;5.93;4.90;;;;;;;18.44;60.43;156100.59;5049078;28;20454;-80
2022/06/15 04:30:48;;;;;;;6.97;6.27;;;;;;;18.57;60.42;156134.53;5049460;28;20435;-79
2022/06/15 04:33:15;;;;;;;7.20;5.37;;;;;;;18.76;60.18;156185.34;5049416;28;20457;-79
2022/06/15 04:35:43;;;;;;;5.87;5.30;;;;;;;18.95;59.03;156232.25;5052537;28;20457;-78
2022/06/15 04:38:15;;;;;;;6.57;5.10;;;;;;;19.05;58.73;156259.59;5053833;28;20442;-79
2022/06/15 04:40:55;;;;;;;6.03;5.43;;;;;;;19.15;57.83;156284.34;5053104;28;20439;-78
2022/06/15 04:43:22;;;;;;;7.50;5.70;;;;;;;19.32;58.11;156328.69;5046064;28;20938;-80
2022/06/15 04:45:49;;;;;;;5.50;4.93;;;;;;;19.56;56.73;156390.00;5051997;28;20451;-80
2022/06/15 04:48:24;;;;;;;6.37;5.77;;;;;;;19.68;55.24;156422.56;5052974;28;20473;-79
2022/06/15 04:50:53;;;;;;;5.60;5.10;;;;;;;19.74;55.16;156436.91;5032349;28;20442;-79
2022/06/15 04:53:21;;;;;;;6.80;5.67;;;;;;;19.75;55.36;156440.81;5036659;28;20448;-80
2022/06/15 04:55:52;;;;;;;5.70;5.10;;;;;;;19.91;55.50;156482.53;5042313;28;21024;-79
2022/06/15 04:58:21;;;;;;;6.40;5.83;;;;;;;20.12;54.72;156536.00;5052816;28;20913;-79
2022/06/15 05:00:51;;;;;;;5.90;5.30;;;;;;;20.34;54.30;156593.44;5035982;28;20447;-80
2022/06/15 05:03:19;;;;;;;6.43;5.83;;;;;;;20.55;53.68;156648.22;5048069;28;20478;-78
2022/06/15 05:05:46;;;;;;;6.00;5.20;;;;;;;20.59;52.81;156657.38;5052582;28;20435;-78
2022/06/15 05:08:13;;;;;;;7.30;5.37;;;;;;;20.67;52.92;156676.94;5047367;28;20458;-78
2022/06/15 05:10:44;;;;;;;6.10;5.50;;;;;;;20.85;52.87;156725.22;5051780;28;20447;-78
2022/06/15 05:13:11;;;;;;;7.63;5.50;;;;;;;20.93;52.92;156746.09;5052710;28;20542;-78
2022/06/15 05:15:43;;;;;;;5.60;5.10;;;;;;;21.11;52.84;156791.81;5035463;28;20436;-79
2022/06/15 05:18:12;;;;;;;7.00;5.37;;;;;;;21.27;52.36;156832.25;5069268;28;20458;-78
2022/06/15 05:20:42;;;;;;;5.77;5.17;;;;;;;21.23;52.38;156824.41;5025898;28;20443;-78
2022/06/15 05:23:15;;;;;;;5.40;4.90;;;;;;;21.48;53.08;156888.38;5051988;28;20474;-78
2022/06/15 05:26:01;;;;;;;6.03;5.40;;;;;;;21.83;51.49;156979.78;5049834;28;20466;-79
2022/06/15 05:28:29;;;;;;;5.70;5.10;;;;;;;21.98;51.15;157017.69;5033697;28;20444;-78
2022/06/15 05:31:04;;;;;;;4.87;4.47;;;;;;;22.34;50.25;157110.44;5035584;28;20440;-79
2022/06/15 05:33:33;;;;;;;6.23;4.90;;;;;;;22.59;50.31;157175.72;5043114;28;20453;-78
2022/06/15 05:36:04;;;;;;;8.47;5.90;;;;;;;22.78;49.90;157224.09;5046756;28;20451;-79
2022/06/15 05:38:31;;;;;;;6.43;5.83;;;;;;;23.04;48.78;157292.03;5048922;28;20810;-78
2022/06/15 05:40:57;;;;;;;7.80;4.77;;;;;;;23.04;49.09;157293.34;5053138;28;20451;-79
2022/06/15 05:43:26;;;;;;;4.80;4.40;;;;;;;23.30;49.17;157360.00;5041834;28;20466;-79
2022/06/15 05:45:55;;;;;;;6.03;4.83;;;;;;;23.52;49.70;157416.25;5034824;28;20450;-79
2022/06/15 05:48:23;;;;;;;6.17;5.57;;;;;;;23.87;48.42;157507.78;5053002;28;20435;-78
2022/06/15 05:50:50;;;;;;;4.57;4.17;;;;;;;24.18;45.31;157587.56;5035220;28;21013;-78
2022/06/15 05:53:20;;;;;;;5.67;5.00;;;;;;;24.04;44.40;157552.22;5050950;28;20449;-78
2022/06/15 05:55:47;;;;;;;7.40;4.60;;;;;;;24.29;45.29;157615.03;5051312;28;20439;-79
2022/06/15 05:58:13;;;;;;;5.53;4.97;;;;;;;24.56;44.59;157685.69;5044370;28;20539;-78
2022/06/15 06:00:40;;;;;;;5.70;5.03;;;;;;;24.85;43.85;157760.28;5041253;28;20561;-79
2022/06/15 06:03:07;;;;;;;5.10;4.70;;;;;;;25.05;43.90;157813.91;5053122;28;20474;-79
2022/06/15 06:05:35;;;;;;;8.67;5.30;;;;;;;25.15;42.75;157840.09;5066943;28;20434;-79
2022/06/15 06:08:02;;;;;;;5.50;5.00;;;;;;;25.12;43.22;157832.28;5071778;28;20453;-79
2022/06/15 06:10:29;;;;;;;5.20;4.70;;;;;;;25.05;44.21;157813.91;5062840;28;20764;-79
2022/06/15 06:12:56;;;;;;;5.87;5.27;;;;;;;25.21;44.04;157855.81;5053018;28;20455;-79
2022/06/15 06:15:22;;;;;;;6.60;5.10;;;;;;;25.42;44.63;157910.75;5049255;28;20473;-79
2022/06/15 06:17:49;;;;;;;5.77;5.17;;;;;;;25.46;44.16;157918.63;5033807;28;20826;-79
2022/06/15 06:20:16;;;;;;;6.33;5.00;;;;;;;25.52;43.47;157934.41;5031511;28;20428;-79
2022/06/15 06:22:44;;;;;;;7.50;6.70;;;;;;;25.36;44.91;157895.03;5044380;28;20475;-79
2022/06/15 06:25:11;;;;;;;5.77;4.97;;;;;;;25.70;43.25;157981.50;5052360;28;20427;-79
2022/06/15 06:27:38;;;;;;;5.30;4.80;;;;;;;25.51;43.74;157933.06;5041731;28;20935;-79
2022/06/15 06:30:06;;;;;;;5.60;5.07;;;;;;;25.36;42.98;157895.03;5050739;28;20450;-79
2022/06/15 06:32:33;;;;;;;5.57;5.03;;;;;;;25.67;42.38;157973.66;5050169;28;20562;-79
2022/06/15 06:34:59;;;;;;;8.90;6.40;;;;;;;25.71;42.14;157985.41;5048591;28;20481;-79
2022/06/15 06:37:26;;;;;;;5.30;4.80;;;;;;;25.86;40.93;158024.72;5051050;28;20458;-79
2022/06/15 06:39:56;;;;;;;5.33;4.83;;;;;;;25.87;40.04;158026.00;5033857;28;20481;-79
2022/06/15 06:42:23;;;;;;;4.77;4.37;;;;;;;25.88;41.31;158028.63;5050683;28;20474;-79
2022/06/15 06:44:55;;;;;;;5.13;4.63;;;;;;;25.93;43.50;158041.72;5032884;28;20796;-79
2022/06/15 06:47:22;;;;;;;6.07;5.00;;;;;;;26.38;40.95;158158.31;5067807;28;20482;-80
2022/06/15 06:49:48;;;;;;;5.30;4.80;;;;;;;26.38;40.99;158159.63;5039322;28;20463;-79
2022/06/15 06:52:15;;;;;;;9.90;5.33;;;;;;;26.61;40.16;158219.84;5059260;28;20438;-79
2022/06/15 06:54:42;;;;;;;5.27;4.77;;;;;;;26.52;40.51;158196.31;5051632;28;20450;-80
2022/06/15 06:57:10;;;;;;;6.20;4.87;;;;;;;26.52;40.99;158196.31;5052225;28;20906;-80
2022/06/15 06:59:37;;;;;;;5.20;4.80;;;;;;;26.81;40.83;158269.69;5051892;28;20825;-80
2022/06/15 07:02:04;;;;;;;4.73;4.40;;;;;;;27.07;41.23;158337.81;5049632;28;20438;-81
2022/06/15 07:04:31;;;;;;;6.73;4.77;;;;;;;27.23;39.90;158378.41;5067517;28;20533;-80
2022/06/15 07:06:58;;;;;;;5.40;4.90;;;;;;;27.04;40.54;158329.94;5056132;28;20459;-80
2022/06/15 07:09:26;;;;;;;5.47;4.97;;;;;;;27.24;39.83;158382.38;5046907;28;20698;-80
2022/06/15 07:11:53;;;;;;;5.17;4.67;;;;;;;27.35;40.38;158411.16;5051623;28;20454;-80
2022/06/15 07:14:21;;;;;;;6.20;4.67;;;;;;;27.19;40.56;158370.56;5050544;28;20431;-80
2022/06/15 07:16:47;;;;;;;6.23;5.63;;;;;;;27.71;39.52;158505.59;5049946;28;20455;-80
2022/06/15 07:19:14;;;;;;;5.63;5.07;;;;;;;27.73;39.13;158509.53;5035836;28;20517;-80
2022/06/15 07:21:41;;;;;;;7.50;4.80;;;;;;;27.70;40.12;158502.97;5054655;28;20444;-80
2022/06/15 07:24:09;;;;;;;8.93;5.37;;;;;;;27.27;41.28;158390.19;5032845;28;20578;-80
2022/06/15 07:26:41;;;;;;;10.57;5.93;;;;;;;27.48;40.64;158444.00;5062566;28;20741;-80
2022/06/15 07:29:09;;;;;;;6.40;5.37;;;;;;;27.22;40.74;158375.81;5051746;28;20415;-80
2022/06/15 07:31:39;;;;;;;6.33;5.20;;;;;;;27.10;41.98;158347.00;5042164;28;20434;-80
2022/06/15 07:34:08;;;;;;;7.93;5.50;;;;;;;27.23;41.15;158379.75;5050183;28;20524;-80
2022/06/15 07:36:35;;;;;;;5.90;5.33;;;;;;;27.71;40.79;158505.59;5048987;28;20462;-80
2022/06/15 07:39:03;;;;;;;5.83;5.30;;;;;;;28.00;42.90;158579.00;5050465;28;20439;-80
2022/06/15 07:41:30;;;;;;;7.00;5.90;;;;;;;27.98;40.39;158575.09;5045861;28;20502;-80
2022/06/15 07:43:57;;;;;;;5.57;5.07;;;;;;;28.16;39.98;158621.00;5047074;28;20467;-80
2022/06/15 07:46:25;;;;;;;7.93;5.57;;;;;;;27.80;40.59;158527.84;5049938;28;20439;-80
2022/06/15 07:51:39;;;;;;;6.10;5.07;;;;;;;28.20;39.60;158632.78;5048371;28;20426;-80
2022/06/15 07:54:09;;;;;;;7.30;5.10;;;;;;;28.36;39.83;158673.44;5046956;28;20924;-81
2022/06/15 07:56:36;;;;;;;6.80;5.67;;;;;;;28.36;39.49;158673.44;5044218;28;20444;-80
2022/06/15 07:59:03;;;;;;;5.70;5.30;;;;;;;28.18;39.71;158626.22;5047727;28;20450;-80
2022/06/15 08:01:30;;;;;;;6.10;5.20;;;;;;;28.18;41.17;158626.22;5049608;28;20933;-80
2022/06/15 08:03:58;;;;;;;5.83;5.33;;;;;;;28.32;40.08;158662.97;5050987;28;20902;-80
2022/06/15 08:06:25;;;;;;;6.60;5.90;;;;;;;28.46;40.88;158699.69;5050727;28;20479;-80
2022/06/15 08:08:52;;;;;;;6.07;5.53;;;;;;;28.75;39.76;158775.75;5047995;28;20459;-80
2022/06/15 08:11:19;;;;;;;5.60;4.90;;;;;;;28.52;41.02;158714.06;5048480;28;20525;-80
2022/06/15 08:13:46;;;;;;;5.60;5.17;;;;;;;28.45;41.26;158697.06;5050799;28;20439;-81
2022/06/15 08:16:13;;;;;;;6.90;5.17;;;;;;;28.94;41.68;158825.59;5045760;28;20472;-81
2022/06/15 08:18:41;;;;;;;6.53;5.37;;;;;;;29.51;39.99;158972.59;5053787;28;20485;-80
2022/06/15 08:21:12;;;;;;;6.37;5.73;;;;;;;29.83;38.96;159055.34;5054703;28;20512;-81
2022/06/15 08:23:43;;;;;;;6.37;5.40;;;;;;;29.43;39.08;158951.63;5070330;28;20535;-81
2022/06/15 08:26:13;;;;;;;5.90;5.27;;;;;;;29.38;39.25;158938.50;5064187;28;20451;-80
2022/06/15 08:28:46;;;;;;;7.30;5.37;;;;;;;29.61;38.15;158998.84;5050242;28;20643;-82
2022/06/15 08:31:13;;;;;;;5.80;5.30;;;;;;;29.61;38.96;158998.84;5064632;28;20533;-82
2022/06/15 08:33:41;;;;;;;5.93;5.07;;;;;;;29.84;38.78;159059.25;5052777;28;20922;-83
2022/06/15 08:36:12;;;;;;;5.77;5.20;;;;;;;30.19;37.37;159149.81;5045006;28;20443;-82
2022/06/15 08:38:40;;;;;;;5.13;4.70;;;;;;;30.32;38.21;159182.63;5054453;28;20695;-83
2022/06/15 08:41:08;;;;;;;5.33;4.70;;;;;;;30.61;36.60;159258.81;5052494;28;20504;-83
2022/06/15 08:43:49;;;;;;;7.47;4.93;;;;;;;30.71;36.94;159286.41;5044470;28;20503;-83
2022/06/15 08:46:22;;;;;;;7.80;4.80;;;;;;;30.61;37.62;159258.81;5047542;28;20443;-82
2022/06/15 08:49:02;;;;;;;6.53;5.20;;;;;;;30.84;35.92;159319.25;5041280;28;20475;-82
2022/06/15 08:51:32;;;;;;;5.03;4.50;;;;;;;30.92;36.87;159340.31;5045394;28;20501;-80
2022/06/15 08:54:03;;;;;;;5.90;5.40;;;;;;;30.92;39.18;159339.00;5035016;28;20416;-80
2022/06/15 08:56:34;;;;;;;5.23;4.83;;;;;;;31.01;37.08;159363.94;5049159;28;20459;-80
2022/06/15 08:59:10;;;;;;;7.20;5.73;;;;;;;31.00;37.88;159360.03;5039211;28;20458;-81
2022/06/15 09:01:41;;;;;;;6.43;5.20;;;;;;;31.18;35.36;159408.63;5053417;28;20439;-82
2022/06/15 09:04:15;;;;;;;5.03;4.63;;;;;;;30.75;36.88;159296.94;5053157;28;21007;-81
2022/06/15 09:06:50;;;;;;;5.50;5.00;;;;;;;30.35;37.05;159190.50;5054166;28;20785;-81
2022/06/15 09:09:36;;;;;;;6.03;5.20;;;;;;;30.64;36.69;159266.72;5054631;28;20438;-82
2022/06/15 09:15:04;;;;;;;7.27;5.50;;;;;;;30.20;37.21;159152.47;5049175;28;20431;-81
2022/06/15 09:17:32;;;;;;;6.20;5.60;;;;;;;29.38;39.40;158939.81;5049716;28;20453;-81
2022/06/15 09:20:03;;;;;;;6.93;6.00;;;;;;;29.23;39.37;158899.16;5034685;28;20860;-81
2022/06/15 09:22:35;;;;;;;8.10;6.37;;;;;;;28.38;40.98;158678.72;5051817;28;20455;-81
2022/06/15 09:25:08;;;;;;;7.30;5.67;;;;;;;28.47;41.45;158702.28;5064373;28;20427;-81
2022/06/15 09:27:37;;;;;;;5.83;5.33;;;;;;;28.78;40.62;158783.63;5052128;28;20491;-82
2022/06/15 09:30:08;;;;;;;5.93;5.30;;;;;;;28.98;39.92;158836.13;5053493;28;20447;-82
2022/06/15 09:32:39;;;;;;;6.00;5.40;;;;;;;29.67;39.53;159014.59;5053926;28;20496;-81
2022/06/15 09:35:10;;;;;;;5.83;5.30;;;;;;;30.40;38.70;159203.69;5052739;28;20439;-81
2022/06/15 09:37:40;;;;;;;6.43;5.83;;;;;;;30.79;37.64;159306.13;5051986;28;20455;-81
2022/06/15 09:40:09;;;;;;;5.80;5.20;;;;;;;30.60;38.14;159256.22;5047437;28;20526;-81
2022/06/15 09:42:42;;;;;;;6.20;5.60;;;;;;;30.95;36.33;159346.91;5052244;28;20468;-81
2022/06/15 09:45:15;;;;;;;5.50;5.10;;;;;;;30.70;37.63;159282.47;5053423;28;20941;-82
2022/06/15 09:47:49;;;;;;;6.00;5.40;;;;;;;30.74;37.42;159292.97;5053206;28;20574;-81
2022/06/15 09:50:25;;;;;;;6.00;5.50;;;;;;;30.65;37.38;159270.69;5053163;28;20521;-82
2022/06/15 09:53:04;;;;;;;8.93;5.30;;;;;;;30.47;37.97;159222.09;5032720;28;20447;-81
2022/06/15 09:55:35;;;;;;;7.30;5.33;;;;;;;30.57;36.29;159248.34;5049171;28;20436;-82
2022/06/15 09:58:02;;;;;;;5.23;4.83;;;;;;;30.57;37.46;159249.66;5034362;28;20455;-81
2022/06/15 10:00:30;;;;;;;5.47;4.97;;;;;;;30.09;36.31;159123.56;5068613;28;20447;-81
2022/06/15 10:03:03;;;;;;;5.83;5.40;;;;;;;29.42;38.17;158948.97;5053141;28;20455;-81
2022/06/15 10:05:32;;;;;;;5.90;5.40;;;;;;;29.46;39.58;158959.50;5052619;28;20451;-81
2022/06/15 10:08:02;;;;;;;5.90;5.40;;;;;;;29.56;38.92;158985.72;5052490;28;20542;-81
2022/06/15 10:10:34;;;;;;;6.40;5.80;;;;;;;29.73;39.22;159030.38;5068772;28;20940;-81
2022/06/15 10:13:05;;;;;;;6.40;5.80;;;;;;;29.52;39.47;158975.25;5053621;28;20558;-81
2022/06/15 10:15:51;;;;;;;6.40;5.90;;;;;;;29.12;39.77;158870.22;5050850;28;20963;-81
2022/06/15 10:18:21;;;;;;;6.67;6.07;;;;;;;28.86;38.63;158804.63;5048336;28;20483;-81
2022/06/15 10:21:02;;;;;;;6.30;5.80;;;;;;;28.77;40.60;158779.72;5038345;28;20450;-80
2022/06/15 10:23:38;;;;;;;8.37;5.80;;;;;;;29.08;39.71;158859.72;5052375;28;20447;-81
2022/06/15 10:26:05;;;;;;;6.50;5.90;;;;;;;29.61;39.09;158998.84;5038727;28;20467;-81
2022/06/15 10:28:34;;;;;;;6.67;6.17;;;;;;;29.64;38.40;159006.72;5071264;28;20437;-82
2022/06/15 10:31:04;;;;;;;5.77;5.00;;;;;;;29.47;38.29;158963.41;5056386;28;20431;-81
2022/06/15 10:33:36;;;;;;;6.00;5.50;;;;;;;29.88;37.68;159069.78;5065367;28;20526;-81
2022/06/15 10:36:04;;;;;;;6.20;5.60;;;;;;;30.23;37.60;159160.34;5067282;28;20431;-81
2022/06/15 10:38:39;;;;;;;6.17;5.30;;;;;;;30.04;37.62;159110.44;5052642;28;20463;-81
2022/06/15 10:43:47;;;;;;;5.20;4.80;;;;;;;30.08;35.96;159122.25;5051262;28;20544;-81
2022/06/15 10:46:15;;;;;;;6.53;5.67;;;;;;;29.80;35.86;159047.44;5051571;28;20838;-81
2022/06/15 10:48:44;;;;;;;6.00;5.40;;;;;;;29.40;36.38;158945.06;5049880;28;20467;-81
2022/06/15 10:51:13;;;;;;;7.20;6.47;;;;;;;29.53;36.00;158977.84;5052453;28;20435;-81
2022/06/15 10:53:45;;;;;;;6.30;5.70;;;;;;;29.10;38.64;158865.00;5047303;28;21004;-81
2022/06/15 11:02:19;;;;;;;6.63;5.83;;;;;;;28.65;38.22;158749.53;5047449;28;20440;-81
2022/06/15 11:04:55;;;;;;;5.50;5.00;;;;;;;28.61;38.41;158739.03;5055763;28;20471;-80
2022/06/15 11:07:31;;;;;;;6.63;6.03;;;;;;;28.67;39.19;158753.50;5044005;28;20904;-81
2022/06/15 11:10:10;;;;;;;6.70;6.20;;;;;;;28.85;38.83;158800.72;5052167;28;20451;-81
2022/06/15 11:12:41;;;;;;;6.13;5.63;;;;;;;28.30;37.71;158657.72;5052199;28;20910;-81
2022/06/15 11:18:01;;;;;;;6.77;6.17;;;;;;;28.36;37.80;158674.75;5051723;28;20922;-81
2022/06/15 11:18:22;;;;;;;6.20;5.60;;;;;;;28.73;37.09;158770.53;5047742;28;20440;-81
2022/06/15 11:20:53;;;;;;;6.00;5.50;;;;;;;28.64;38.30;158745.63;5061077;28;20430;-81
2022/06/15 11:23:22;;;;;;;6.80;6.23;;;;;;;29.23;37.43;158899.16;5066672;28;20526;-82
2022/06/15 11:25:58;;;;;;;6.63;6.10;;;;;;;28.96;37.35;158830.84;5046646;28;20969;-81
2022/06/15 11:28:28;;;;;;;7.13;5.33;;;;;;;28.88;38.16;158808.59;5041408;28;20851;-80
2022/06/15 11:30:59;;;;;;;6.20;5.70;;;;;;;28.60;37.20;158736.38;5049822;28;20843;-80
2022/06/15 11:33:34;;;;;;;6.47;5.97;;;;;;;28.62;37.51;158740.41;5066165;28;20450;-80
2022/06/15 11:36:12;;;;;;;6.57;5.97;;;;;;;28.75;36.28;158775.75;5066422;28;20877;-80
2022/06/15 11:38:46;;;;;;;6.80;6.30;;;;;;;28.43;36.98;158691.81;5056868;28;20498;-80
2022/06/15 11:41:23;;;;;;;6.50;5.90;;;;;;;28.39;36.91;158682.63;5031684;28;20493;-80
2022/06/15 11:43:52;;;;;;;7.10;6.50;;;;;;;28.30;37.14;158657.72;5032853;28;20562;-80
2022/06/15 11:46:43;;;;;;;6.67;5.40;;;;;;;28.66;37.20;158752.19;5051074;28;20443;-80
2022/06/15 11:49:18;;;;;;;6.37;5.77;;;;;;;28.92;36.18;158820.38;5046063;28;20546;-80
2022/06/15 11:51:58;;;;;;;5.53;5.03;;;;;;;28.51;36.54;158712.81;5042015;28;20776;-80
2022/06/15 11:54:38;;;;;;;5.50;5.10;;;;;;;28.49;36.42;158707.53;5069318;28;20439;-80
2022/06/15 11:57:14;;;;;;;5.80;5.30;;;;;;;28.46;36.21;158699.69;5059683;28;20864;-80
2022/06/15 11:59:45;;;;;;;6.20;5.20;;;;;;;28.36;35.94;158673.44;5053855;28;20442;-80